Charleston Air Force Base-International Airport
KCHS : now visible

Airfield :











YOU CAN JOIN US ON...

 
LOGIN :

Register | Disclaimer

   EN    FR    IT 

 









Legend :    VFR   Marginal VFR   IFR   Intensive IFR   Very Intensive IFR
Visi :
Ceiling :
>= 8 km
>= 3000ft
5 to 8 km
1000 to 3000 ft
1500m to 5 km
500 to 1000 ft
800 to 1500m
200 to 500 ft
< 800m
< 200 ft
Symbols :   Thunderstorms  Fog  Heavy snow  Heavy precipitations  Wind > 20 kt






- Airport Elevation : 46 ft
- IATA code : CHS


KCHS - Charleston Air Force Base-International

CURRENT METAR :
  • 080456Z 00000KT 8SM SCT028 BKN055 24/24 A2992 RMK AO2 LTG DSNT SE SLP132 CB DSNT SE T02440239 402670233 $

EXPIRED METARs :
  • 080356Z 00000KT 10SM FEW030 24/24 A2993 RMK AO2 LTG DSNT S SLP136 CB DSNT S T02440239 $
  • 080256Z 00000KT 10SM FEW014 SCT060 24/23 A2994 RMK AO2 SLP137 T02440233 53006 $
  • 080241Z 00000KT 10SM SCT014 SCT060 24/23 A2994 RMK AO2 LTG DSNT SE CB DSNT SE T02440233 $

TAF KCHS
Valid from the 08 at 06:00 until the 09 at 06:00 UTC


080524Z 0806/0906 VRB02KT P6SM VCSH SCT025 BKN050
FM080800 23004KT 6SM BR VCSH SCT006 OVC015
FM081400 31007KT P6SM VCSH SCT015 BKN035
FM081800 28007KT P6SM VCTS SCT020 BKN035CB
FM090200 31005KT P6SM VCSH SCT020 BKN040
KZJX FIR / North America



MET'MAP, your aeronautical weather chart ! - Copyright ORBIFLY December 2007 - Disclaimer

ORBIFLY MET'MAP TEAM :

Programming & Development : Alexandra Zaïnal
Concept & original design : Baudouin d'Aumeries
Assistance for programming : Marc-Olivier Méhu
Technical & hardware support : Manuel Goepfert

Contact : metmap@orbifly.com




SOURCES & CREDITS :

   NOAA       Earth
Advisory